createdAt,value
2019-05-11T00:01:09.435Z,8.44
2019-05-11T00:03:38.177Z,8.44
2019-05-11T00:06:06.909Z,8.36
2019-05-11T00:08:35.657Z,8.36
2019-05-11T00:11:04.477Z,8.39
2019-05-11T00:13:33.197Z,8.55
2019-05-11T00:16:02.013Z,8.51
2019-05-11T00:18:30.748Z,8.20
2019-05-11T00:20:59.802Z,8.20
2019-05-11T00:23:28.509Z,8.28
2019-05-11T00:25:57.247Z,8.19
2019-05-11T00:28:25.957Z,8.38
2019-05-11T00:30:54.682Z,8.38
2019-05-11T00:33:23.424Z,8.17
2019-05-11T00:35:52.291Z,8.17
2019-05-11T00:38:21.021Z,8.09
2019-05-11T00:40:49.759Z,8.21
2019-05-11T00:43:18.539Z,8.08
2019-05-11T00:45:47.492Z,8.13
2019-05-11T00:48:16.206Z,7.94
2019-05-11T00:50:45.007Z,7.99
2019-05-11T00:53:13.741Z,7.99
2019-05-11T00:55:42.494Z,7.92
2019-05-11T00:58:11.181Z,7.93
2019-05-11T01:00:39.989Z,7.93
2019-05-11T01:03:08.803Z,7.96
2019-05-11T01:05:37.541Z,7.69
2019-05-11T01:08:06.735Z,7.80
2019-05-11T01:10:42.094Z,7.89
2019-05-11T01:13:06.065Z,7.74
2019-05-11T01:15:34.783Z,7.74
2019-05-11T01:18:03.565Z,7.65
2019-05-11T01:20:32.262Z,7.65
2019-05-11T01:23:01.057Z,7.64
2019-05-11T01:25:29.826Z,7.64
2019-05-11T01:27:58.720Z,7.59
2019-05-11T01:30:27.442Z,7.54
2019-05-11T01:32:56.169Z,7.56
2019-05-11T01:35:24.951Z,7.56
2019-05-11T01:37:53.686Z,7.51
2019-05-11T01:40:22.561Z,7.48
2019-05-11T01:42:51.311Z,7.53
2019-05-11T01:45:20.044Z,7.47
2019-05-11T01:47:48.789Z,7.49
2019-05-11T01:50:17.594Z,7.54
2019-05-11T01:52:46.339Z,7.44
2019-05-11T01:55:15.062Z,7.44
2019-05-11T01:57:43.823Z,7.40
2019-05-11T02:00:12.802Z,7.41
2019-05-11T02:02:41.576Z,7.46
2019-05-11T02:05:41.887Z,7.35
2019-05-11T02:08:10.699Z,7.35
2019-05-11T02:10:39.463Z,7.41
2019-05-11T02:13:08.239Z,7.42
2019-05-11T02:15:37.021Z,7.38
2019-05-11T02:18:05.878Z,7.41
2019-05-11T02:20:34.665Z,7.42
2019-05-11T02:23:03.427Z,7.45
2019-05-11T02:25:32.519Z,7.53
2019-05-11T02:28:01.269Z,7.52
2019-05-11T02:30:30.013Z,7.52
2019-05-11T02:32:58.836Z,7.54
2019-05-11T02:35:27.562Z,7.49
2019-05-11T02:37:56.305Z,7.53
2019-05-11T02:40:25.476Z,7.54
2019-05-11T02:42:54.615Z,7.54
2019-05-11T02:45:37.358Z,7.60
2019-05-11T02:48:06.418Z,7.50
2019-05-11T02:50:36.680Z,7.63
2019-05-11T02:53:05.620Z,7.68
2019-05-11T02:55:35.605Z,7.68
2019-05-11T02:58:05.108Z,7.61
2019-05-11T03:00:39.936Z,7.50
2019-05-11T03:03:08.874Z,7.50
2019-05-11T03:05:37.759Z,7.50
2019-05-11T03:08:06.654Z,7.50
2019-05-11T03:10:35.468Z,7.52
2019-05-11T03:13:04.532Z,7.32
2019-05-11T03:15:33.333Z,7.49
2019-05-11T03:18:02.067Z,7.49
2019-05-11T03:20:31.427Z,7.50
2019-05-11T03:23:00.271Z,7.44
2019-05-11T03:25:29.024Z,7.44
2019-05-11T03:27:57.747Z,7.44
2019-05-11T03:30:26.589Z,7.46
2019-05-11T03:32:55.307Z,7.36
2019-05-11T03:35:24.155Z,7.36
2019-05-11T03:37:52.881Z,7.40
2019-05-11T03:40:21.795Z,7.40
2019-05-11T03:42:50.512Z,7.38
2019-05-11T03:45:19.392Z,7.40
2019-05-11T03:47:48.126Z,7.49
2019-05-11T03:50:17.295Z,7.48
2019-05-11T03:52:46.189Z,7.48
2019-05-11T03:55:15.593Z,7.40
2019-05-11T03:57:44.389Z,7.41
2019-05-11T04:00:13.871Z,7.44
2019-05-11T04:02:42.677Z,7.44
2019-05-11T04:05:11.492Z,7.44
2019-05-11T04:07:40.278Z,7.44
2019-05-11T04:10:09.645Z,7.62
2019-05-11T04:12:38.368Z,7.52
2019-05-11T04:15:07.831Z,7.54
2019-05-11T04:17:36.561Z,7.59
2019-05-11T04:20:05.842Z,7.62
2019-05-11T04:22:34.652Z,7.62
2019-05-11T04:25:03.517Z,7.60
2019-05-11T04:27:32.229Z,7.61
2019-05-11T04:30:00.995Z,7.57
2019-05-11T04:32:29.719Z,7.65
2019-05-11T04:34:58.472Z,7.69
2019-05-11T04:37:27.220Z,7.80
2019-05-11T04:39:55.943Z,7.80
2019-05-11T04:42:24.667Z,7.81
2019-05-11T04:44:53.558Z,7.84
2019-05-11T04:47:22.282Z,7.96
2019-05-11T04:49:51.113Z,7.99
2019-05-11T04:52:19.956Z,7.99
2019-05-11T04:54:48.705Z,8.07
2019-05-11T04:57:17.546Z,8.04
2019-05-11T04:59:46.279Z,8.00
2019-05-11T05:02:15.149Z,8.12
2019-05-11T05:04:43.877Z,8.01
2019-05-11T05:07:12.827Z,8.00
2019-05-11T05:09:44.561Z,8.05
2019-05-11T05:12:14.083Z,8.13
2019-05-11T05:14:43.038Z,8.01
2019-05-11T05:17:11.755Z,8.13
2019-05-11T05:19:40.487Z,8.18
2019-05-11T05:22:09.539Z,8.18
2019-05-11T05:24:38.511Z,8.18
2019-05-11T05:27:07.341Z,8.18
2019-05-11T05:29:36.083Z,8.25
2019-05-11T05:32:04.821Z,8.34
2019-05-11T05:34:33.549Z,8.34
2019-05-11T05:37:02.361Z,8.41
2019-05-11T05:39:31.078Z,8.43
2019-05-11T05:41:59.911Z,8.42
2019-05-11T05:44:28.706Z,8.53
2019-05-11T05:46:57.563Z,8.53
2019-05-11T05:49:26.289Z,8.48
2019-05-11T05:51:58.200Z,8.48
2019-05-11T05:54:25.499Z,8.74
2019-05-11T05:56:54.335Z,8.74
2019-05-11T05:59:23.133Z,8.66
2019-05-11T06:01:51.879Z,8.81
2019-05-11T06:04:20.677Z,8.93
2019-05-11T06:06:49.633Z,9.02
2019-05-11T06:09:18.357Z,9.05
2019-05-11T06:11:47.169Z,9.04
2019-05-11T06:14:15.898Z,9.10
2019-05-11T06:16:44.665Z,9.10
2019-05-11T06:19:13.401Z,9.19
2019-05-11T06:21:42.143Z,9.19
2019-05-11T06:24:10.881Z,8.94
2019-05-11T06:26:39.659Z,9.06
2019-05-11T06:29:08.466Z,8.98
2019-05-11T06:31:37.504Z,9.07
2019-05-11T06:34:06.586Z,9.02
2019-05-11T06:36:35.351Z,9.14
2019-05-11T06:39:07.441Z,8.95
2019-05-11T06:41:36.672Z,9.10
2019-05-11T06:44:06.028Z,9.09
2019-05-11T06:46:35.244Z,9.01
2019-05-11T06:49:04.120Z,9.11
2019-05-11T06:51:32.940Z,9.08
2019-05-11T06:54:01.651Z,9.27
2019-05-11T06:56:30.392Z,9.36
2019-05-11T06:58:59.136Z,9.50
2019-05-11T07:01:27.976Z,9.40
2019-05-11T07:03:56.994Z,9.18
2019-05-11T07:06:30.099Z,9.13
2019-05-11T07:08:56.689Z,9.14
2019-05-11T07:11:25.785Z,9.12
2019-05-11T07:13:54.592Z,9.12
2019-05-11T07:16:23.747Z,9.33
2019-05-11T07:18:52.487Z,9.43
2019-05-11T07:21:21.331Z,9.25
2019-05-11T07:23:50.271Z,9.30
2019-05-11T07:26:19.301Z,9.47
2019-05-11T07:28:48.104Z,9.47
2019-05-11T07:31:16.929Z,9.76
2019-05-11T07:33:45.765Z,9.82
2019-05-11T07:36:14.614Z,9.79
2019-05-11T07:38:43.370Z,9.77
2019-05-11T07:41:12.168Z,9.69
2019-05-11T07:43:40.910Z,9.69
2019-05-11T07:46:09.770Z,9.57
2019-05-11T07:48:38.890Z,9.57
2019-05-11T07:51:08.920Z,9.61
2019-05-11T07:53:38.191Z,9.73
2019-05-11T07:56:08.275Z,9.54
2019-05-11T07:58:38.694Z,9.48
2019-05-11T08:01:08.717Z,9.60
2019-05-11T08:03:39.499Z,9.58
2019-05-11T08:06:08.932Z,9.48
2019-05-11T08:11:18.398Z,9.72
2019-05-11T08:13:48.085Z,9.69
2019-05-11T08:16:18.534Z,9.80
2019-05-11T08:18:48.286Z,9.77
2019-05-11T08:21:17.992Z,9.77
2019-05-11T08:23:48.374Z,9.94
2019-05-11T08:26:20.139Z,9.99
2019-05-11T08:28:48.933Z,9.76
2019-05-11T08:31:20.403Z,9.87
2019-05-11T08:33:54.143Z,9.85
2019-05-11T08:36:28.859Z,9.99
2019-05-11T08:39:08.366Z,9.93
2019-05-11T08:41:38.716Z,9.79
2019-05-11T08:44:09.970Z,9.98
2019-05-11T08:46:40.106Z,9.94
2019-05-11T08:49:19.019Z,10.06
2019-05-11T08:51:49.215Z,10.00
2019-05-11T08:54:38.204Z,9.89
2019-05-11T08:57:08.167Z,10.02
2019-05-11T08:59:39.297Z,10.03
2019-05-11T09:02:08.212Z,10.02
2019-05-11T09:04:48.423Z,10.02
2019-05-11T09:07:39.887Z,9.91
2019-05-11T09:10:13.212Z,10.00
2019-05-11T09:12:49.080Z,9.91
2019-05-11T09:15:33.705Z,10.03
2019-05-11T09:17:57.648Z,10.11
2019-05-11T09:20:28.697Z,10.12
2019-05-11T09:23:00.040Z,10.11
2019-05-11T09:25:32.416Z,10.13
2019-05-11T09:28:05.015Z,10.13
2019-05-11T09:30:34.240Z,10.29
2019-05-11T09:33:03.327Z,10.42
2019-05-11T09:35:47.556Z,10.40
2019-05-11T09:38:09.141Z,10.50
2019-05-11T09:40:52.097Z,10.41
2019-05-11T09:43:30.806Z,10.46
2019-05-11T09:46:08.496Z,10.48
2019-05-11T09:48:48.690Z,10.46
2019-05-11T09:51:35.260Z,10.38
2019-05-11T09:54:20.494Z,10.48
2019-05-11T09:56:52.331Z,10.30
2019-05-11T09:59:28.183Z,10.35
2019-05-11T10:02:01.813Z,10.54
2019-05-11T10:04:38.113Z,10.67
2019-05-11T10:07:13.971Z,10.53
2019-05-11T10:09:47.877Z,10.43
2019-05-11T10:12:19.758Z,10.61
2019-05-11T10:14:58.962Z,10.49
2019-05-11T10:17:38.309Z,10.45
2019-05-11T10:20:18.269Z,10.27
2019-05-11T10:22:51.900Z,10.39
2019-05-11T10:25:23.463Z,10.51
2019-05-11T10:27:57.929Z,10.47
2019-05-11T10:30:32.467Z,10.46
2019-05-11T10:33:13.400Z,10.61
2019-05-11T10:35:53.192Z,10.61
2019-05-11T10:38:25.034Z,10.85
2019-05-11T10:41:00.541Z,10.54
2019-05-11T10:43:38.962Z,10.72
2019-05-11T10:46:23.080Z,10.89
2019-05-11T10:48:54.894Z,10.93
2019-05-11T10:51:29.729Z,11.00
2019-05-11T10:54:08.583Z,10.95
2019-05-11T10:56:31.963Z,10.64
2019-05-11T10:59:00.814Z,10.57
2019-05-11T11:01:29.630Z,10.69
2019-05-11T11:03:58.815Z,10.59
2019-05-11T11:06:28.288Z,10.81
2019-05-11T11:08:57.863Z,10.93
2019-05-11T11:11:27.834Z,10.84
2019-05-11T11:13:58.522Z,10.82
2019-05-11T11:16:36.965Z,10.66
2019-05-11T11:18:58.946Z,10.68
2019-05-11T11:21:28.076Z,10.66
2019-05-11T11:23:58.751Z,10.75
2019-05-11T11:26:28.486Z,10.79
2019-05-11T11:28:58.112Z,10.72
2019-05-11T11:31:28.796Z,10.72
2019-05-11T11:33:58.545Z,10.50
2019-05-11T11:36:28.424Z,10.46
2019-05-11T11:38:58.364Z,10.46
2019-05-11T11:41:29.884Z,10.58
2019-05-11T11:43:58.626Z,10.62
2019-05-11T11:46:27.860Z,10.55
2019-05-11T11:48:58.113Z,10.64
2019-05-11T11:51:28.654Z,10.64
2019-05-11T11:53:58.481Z,10.78
2019-05-11T11:56:29.229Z,10.92
2019-05-11T11:58:58.186Z,10.84
2019-05-11T12:01:28.097Z,10.73
2019-05-11T12:03:58.087Z,10.75
2019-05-11T12:06:28.315Z,10.62
2019-05-11T12:08:58.475Z,10.59
2019-05-11T12:11:27.988Z,10.59
2019-05-11T12:13:57.955Z,10.50
2019-05-11T12:16:28.193Z,10.57
2019-05-11T12:18:57.809Z,10.52
2019-05-11T12:24:08.263Z,10.33
2019-05-11T12:26:38.847Z,10.19
2019-05-11T12:29:08.250Z,10.18
2019-05-11T12:31:37.976Z,10.19
2019-05-11T12:34:08.729Z,10.05
2019-05-11T12:36:38.696Z,10.10
2019-05-11T12:39:08.652Z,9.99
2019-05-11T12:41:38.716Z,10.11
2019-05-11T12:44:08.380Z,9.88
2019-05-11T12:46:39.582Z,9.57
2019-05-11T12:49:08.350Z,9.70
2019-05-11T12:51:38.307Z,9.53
2019-05-11T12:54:08.230Z,9.44
2019-05-11T12:56:38.263Z,9.25
2019-05-11T12:59:08.252Z,9.15
2019-05-11T13:01:38.094Z,9.17
2019-05-11T13:04:08.959Z,9.15
2019-05-11T13:06:38.564Z,9.15
2019-05-11T13:09:08.393Z,9.35
2019-05-11T13:11:37.996Z,9.45
2019-05-11T13:14:08.053Z,9.45
2019-05-11T13:16:37.900Z,9.25
2019-05-11T13:19:08.505Z,9.13
2019-05-11T13:21:38.271Z,9.13
2019-05-11T13:24:08.384Z,9.42
2019-05-11T13:26:38.080Z,9.44
2019-05-11T13:29:07.765Z,9.36
2019-05-11T13:31:38.398Z,9.36
2019-05-11T13:34:08.340Z,9.40
2019-05-11T13:36:38.143Z,9.55
2019-05-11T13:39:08.862Z,9.79
2019-05-11T13:41:38.386Z,9.52
2019-05-11T13:44:08.037Z,9.19
2019-05-11T13:46:38.862Z,9.41
2019-05-11T13:49:08.610Z,9.62
2019-05-11T13:51:38.835Z,9.74
2019-05-11T13:54:08.046Z,9.42
2019-05-11T13:56:38.017Z,9.51
2019-05-11T13:59:10.398Z,9.41
2019-05-11T14:01:39.236Z,9.62
2019-05-11T14:04:08.726Z,9.79
2019-05-11T14:06:37.888Z,9.31
2019-05-11T14:09:08.516Z,9.40
2019-05-11T14:11:39.053Z,9.41
2019-05-11T14:14:08.223Z,9.35
2019-05-11T14:16:37.875Z,9.25
2019-05-11T14:19:08.649Z,9.28
2019-05-11T14:21:38.471Z,9.15
2019-05-11T14:24:08.059Z,9.45
2019-05-11T14:26:38.573Z,9.56
2019-05-11T14:29:08.527Z,9.40
2019-05-11T14:31:38.588Z,9.34
2019-05-11T14:34:08.792Z,9.17
2019-05-11T14:36:38.709Z,9.35
2019-05-11T14:39:08.690Z,9.22
2019-05-11T14:41:38.308Z,9.42
2019-05-11T14:44:08.890Z,9.24
2019-05-11T14:46:38.413Z,9.43
2019-05-11T14:49:07.923Z,9.27
2019-05-11T14:51:39.117Z,9.27
2019-05-11T14:54:08.333Z,9.20
2019-05-11T14:56:38.098Z,9.32
2019-05-11T14:59:09.024Z,9.28
2019-05-11T15:01:38.128Z,9.03
2019-05-11T15:04:09.083Z,9.11
2019-05-11T15:06:38.608Z,9.13
2019-05-11T15:09:08.195Z,9.23
2019-05-11T15:11:38.814Z,9.25
2019-05-11T15:14:08.227Z,9.03
2019-05-11T15:16:38.446Z,9.19
2019-05-11T15:19:08.055Z,9.20
2019-05-11T15:21:38.746Z,9.19
2019-05-11T15:24:09.114Z,9.22
2019-05-11T15:26:38.259Z,9.14
2019-05-11T15:29:08.080Z,9.16
2019-05-11T15:31:38.041Z,9.13
2019-05-11T15:34:08.551Z,9.19
2019-05-11T15:36:38.731Z,9.15
2019-05-11T15:39:08.153Z,8.82
2019-05-11T15:41:38.869Z,8.82
2019-05-11T15:44:11.352Z,8.88
2019-05-11T15:46:38.928Z,8.84
2019-05-11T15:49:08.802Z,8.88
2019-05-11T15:51:41.086Z,8.86
2019-05-11T15:54:08.487Z,8.92
2019-05-11T15:56:38.460Z,8.90
2019-05-11T15:59:08.696Z,8.90
2019-05-11T16:01:41.063Z,8.81
2019-05-11T16:04:09.095Z,8.81
2019-05-11T16:06:37.931Z,8.67
2019-05-11T16:09:08.538Z,8.80
2019-05-11T16:11:38.735Z,8.80
2019-05-11T16:14:08.903Z,8.91
2019-05-11T16:16:39.105Z,8.78
2019-05-11T16:19:14.389Z,8.83
2019-05-11T16:21:38.560Z,8.91
2019-05-11T16:24:27.759Z,8.79
2019-05-11T16:26:58.202Z,8.84
2019-05-11T16:29:28.019Z,8.67
2019-05-11T16:31:57.836Z,8.67
2019-05-11T16:34:27.798Z,8.70
2019-05-11T16:36:56.962Z,8.73
2019-05-11T16:39:27.908Z,8.73
2019-05-11T16:41:57.823Z,8.70
2019-05-11T16:44:27.171Z,8.51
2019-05-11T16:46:58.254Z,8.67
2019-05-11T16:49:31.744Z,8.69
2019-05-11T16:51:56.895Z,8.77
2019-05-11T16:54:27.909Z,8.60
2019-05-11T16:56:57.898Z,8.62
2019-05-11T16:59:26.890Z,8.62
2019-05-11T17:01:55.624Z,8.54
2019-05-11T17:04:26.622Z,8.69
2019-05-11T17:06:54.999Z,8.66
2019-05-11T17:09:23.825Z,8.70
2019-05-11T17:11:52.583Z,8.75
2019-05-11T17:14:21.327Z,8.78
2019-05-11T17:16:50.157Z,8.70
2019-05-11T17:19:18.911Z,8.70
2019-05-11T17:21:47.659Z,8.62
2019-05-11T17:24:16.445Z,8.52
2019-05-11T17:26:47.866Z,8.39
2019-05-11T17:29:18.578Z,8.39
2019-05-11T17:31:48.504Z,8.54
2019-05-11T17:34:20.226Z,8.48
2019-05-11T17:36:47.810Z,8.48
2019-05-11T17:39:18.694Z,8.37
2019-05-11T17:41:47.950Z,8.41
2019-05-11T17:44:18.511Z,8.33
2019-05-11T17:46:47.625Z,8.40
2019-05-11T17:49:18.396Z,8.48
2019-05-11T17:51:48.444Z,8.27
2019-05-11T17:54:17.926Z,8.32
2019-05-11T17:56:48.378Z,8.36
2019-05-11T17:59:19.509Z,8.36
2019-05-11T18:01:47.721Z,8.22
2019-05-11T18:04:18.287Z,8.39
2019-05-11T18:06:47.562Z,8.39
2019-05-11T18:09:18.213Z,8.45
2019-05-11T18:11:48.250Z,8.45
2019-05-11T18:14:17.177Z,8.50
2019-05-11T18:16:48.032Z,8.31
2019-05-11T18:19:18.390Z,8.31
2019-05-11T18:21:48.758Z,8.35
2019-05-11T18:24:17.987Z,8.34
2019-05-11T18:26:48.783Z,8.22
2019-05-11T18:29:18.220Z,8.25
2019-05-11T18:31:48.638Z,8.25
2019-05-11T18:34:17.974Z,8.35
2019-05-11T18:36:48.537Z,8.35
2019-05-11T18:39:18.648Z,8.30
2019-05-11T18:41:48.407Z,8.32
2019-05-11T18:44:18.778Z,8.39
2019-05-11T18:46:48.055Z,8.30
2019-05-11T18:49:17.960Z,8.34
2019-05-11T18:51:48.361Z,8.41
2019-05-11T18:54:19.202Z,8.40
2019-05-11T18:56:48.928Z,8.31
2019-05-11T18:59:19.584Z,8.31
2019-05-11T19:01:48.597Z,8.36
2019-05-11T19:04:18.365Z,8.35
2019-05-11T19:06:48.460Z,8.28
2019-05-11T19:09:18.172Z,8.24
2019-05-11T19:11:48.852Z,8.31
2019-05-11T19:14:18.009Z,8.28
2019-05-11T19:16:49.028Z,8.22
2019-05-11T19:19:18.296Z,8.25
2019-05-11T19:21:48.164Z,8.20
2019-05-11T19:24:19.027Z,8.18
2019-05-11T19:26:48.107Z,8.07
2019-05-11T19:29:18.385Z,8.07
2019-05-11T19:31:47.730Z,8.17
2019-05-11T19:34:17.778Z,8.09
2019-05-11T19:36:48.519Z,8.09
2019-05-11T19:39:19.340Z,8.19
2019-05-11T19:41:48.389Z,8.08
2019-05-11T19:44:18.759Z,8.08
2019-05-11T19:46:47.813Z,8.31
2019-05-11T19:49:19.003Z,8.27
2019-05-11T19:51:48.721Z,8.27
2019-05-11T19:54:18.590Z,8.14
2019-05-11T19:56:47.982Z,8.25
2019-05-11T19:59:17.135Z,8.25
2019-05-11T20:01:45.897Z,8.24
2019-05-11T20:04:15.086Z,8.22
2019-05-11T20:06:43.919Z,8.14
2019-05-11T20:09:12.732Z,8.11
2019-05-11T20:11:44.456Z,8.14
2019-05-11T20:14:13.484Z,8.06
2019-05-11T20:16:42.621Z,8.08
2019-05-11T20:19:14.097Z,8.10
2019-05-11T20:21:42.300Z,8.11
2019-05-11T20:24:11.422Z,8.13
2019-05-11T20:26:40.166Z,8.19
2019-05-11T20:29:09.136Z,7.93
2019-05-11T20:31:37.957Z,7.96
2019-05-11T20:34:07.049Z,7.92
2019-05-11T20:36:36.083Z,7.91
2019-05-11T20:39:07.881Z,7.99
2019-05-11T20:41:38.507Z,7.94
2019-05-11T20:44:08.670Z,7.94
2019-05-11T20:46:38.335Z,7.91
2019-05-11T20:49:07.164Z,7.95
2019-05-11T20:51:37.172Z,8.06
2019-05-11T20:54:08.619Z,7.98
2019-05-11T20:56:38.662Z,7.98
2019-05-11T20:59:07.829Z,7.83
2019-05-11T21:01:38.667Z,7.88
2019-05-11T21:04:08.456Z,7.85
2019-05-11T21:06:37.356Z,7.82
2019-05-11T21:09:07.261Z,7.83
2019-05-11T21:11:36.014Z,7.88
2019-05-11T21:14:05.110Z,7.88
2019-05-11T21:16:34.022Z,7.93
2019-05-11T21:19:03.182Z,8.00
2019-05-11T21:21:46.026Z,7.96
2019-05-11T21:24:02.403Z,8.00
2019-05-11T21:26:31.324Z,8.03
2019-05-11T21:29:00.146Z,8.07
2019-05-11T21:31:29.269Z,8.06
2019-05-11T21:33:57.972Z,8.15
2019-05-11T21:36:28.346Z,7.97
2019-05-11T21:38:58.793Z,8.03
2019-05-11T21:41:30.717Z,7.99
2019-05-11T21:43:58.628Z,7.89
2019-05-11T21:46:28.400Z,7.89
2019-05-11T21:48:58.269Z,7.98
2019-05-11T21:51:28.556Z,7.90
2019-05-11T21:53:57.895Z,7.82
2019-05-11T21:56:28.841Z,7.75
2019-05-11T21:58:57.342Z,7.78
2019-05-11T22:01:28.165Z,7.69
2019-05-11T22:03:56.570Z,7.63
2019-05-11T22:06:25.548Z,7.57
2019-05-11T22:08:54.342Z,7.61
2019-05-11T22:11:23.073Z,7.49
2019-05-11T22:13:51.903Z,7.47
2019-05-11T22:16:20.697Z,7.43
2019-05-11T22:18:49.623Z,7.45
2019-05-11T22:21:18.852Z,7.40
2019-05-11T22:23:50.635Z,7.34
2019-05-11T22:26:18.354Z,7.28
2019-05-11T22:28:48.133Z,7.28
2019-05-11T22:31:18.312Z,7.33
2019-05-11T22:33:48.049Z,7.16
2019-05-11T22:36:16.970Z,7.11
2019-05-11T22:38:48.149Z,7.12
2019-05-11T22:41:18.041Z,7.10
2019-05-11T22:43:48.527Z,7.06
2019-05-11T22:46:17.798Z,6.98
2019-05-11T22:48:48.898Z,7.04
2019-05-11T22:51:18.366Z,7.03
2019-05-11T22:53:50.194Z,6.93
2019-05-11T22:56:19.931Z,7.05
2019-05-11T22:58:49.917Z,6.91
2019-05-11T23:01:18.788Z,6.85
2019-05-11T23:03:47.682Z,6.73
2019-05-11T23:06:18.051Z,6.70
2019-05-11T23:08:48.313Z,6.69
2019-05-11T23:11:18.057Z,6.63
2019-05-11T23:13:47.938Z,6.63
2019-05-11T23:16:17.920Z,6.55
2019-05-11T23:18:48.099Z,6.56
2019-05-11T23:21:16.904Z,6.52
2019-05-11T23:23:47.770Z,6.51
2019-05-11T23:26:17.797Z,6.52
2019-05-11T23:28:48.655Z,6.52
2019-05-11T23:31:17.079Z,6.53
2019-05-11T23:33:46.019Z,6.48
2019-05-11T23:36:15.011Z,6.29
2019-05-11T23:38:43.922Z,6.30
2019-05-11T23:41:24.331Z,6.39
2019-05-11T23:43:43.335Z,6.32
2019-05-11T23:46:12.328Z,6.23
2019-05-11T23:48:41.152Z,6.22
2019-05-11T23:51:10.166Z,6.15
2019-05-11T23:53:39.027Z,6.23
2019-05-11T23:56:08.084Z,6.09
2019-05-11T23:58:39.029Z,6.01
